Central City, Kentucky
Current Conditions -  °F | °C
As of 7:55 AM on Friday 24 Oct 2014 (Local Time) from K2I0 Reporting Station
Overcast Overcast  
Wind Chill: 47°   Ceiling: 4300
Heat Index: 47°   Visibility: 7mi
Dew Point: 47°   Wind: 0mph
Humidity: 100%   Direction: NA
Pressure: 30.14"   Gusts: NA
Location:  37.29°N, 87.12°W
Report Text: K2I0 241255Z AUTO 00000KT 7SM OVC043 08/08 A3014 RMK AO2 T00820082
Loading
Personal Weather Stations






























Interactive Weather Map
Tropical Storm Tracking
New forecast layout! Learn more

10-Day Weather Forecast

Advertisements
Track Severe Weather on mobile